createdAt,value
2022-08-18T00:00:12.964Z,27.10
2022-08-18T00:03:27.180Z,27.10
2022-08-18T00:06:16.941Z,27.10
2022-08-18T00:09:08.844Z,27.10
2022-08-18T00:11:57.562Z,27.10
2022-08-18T00:14:46.648Z,27.10
2022-08-18T00:17:35.544Z,27.20
2022-08-18T00:20:25.067Z,27.20
2022-08-18T00:23:13.508Z,27.20
2022-08-18T00:26:00.697Z,27.20
2022-08-18T00:28:49.240Z,27.20
2022-08-18T00:31:37.155Z,27.20
2022-08-18T00:34:24.403Z,27.20
2022-08-18T00:37:12.021Z,27.20
2022-08-18T00:39:58.959Z,27.30
2022-08-18T00:42:50.847Z,27.30
2022-08-18T00:45:42.749Z,27.30
2022-08-18T00:48:30.322Z,27.30
2022-08-18T00:51:22.161Z,27.30
2022-08-18T00:54:15.394Z,27.40
2022-08-18T00:57:07.637Z,27.40
2022-08-18T01:00:07.906Z,27.40
2022-08-18T01:03:02.278Z,27.40
2022-08-18T01:05:54.886Z,27.40
2022-08-18T01:08:42.182Z,27.40
2022-08-18T01:11:30.339Z,27.40
2022-08-18T01:14:18.356Z,27.40
2022-08-18T01:17:23.263Z,27.40
2022-08-18T01:20:34.520Z,27.40
2022-08-18T01:23:25.046Z,27.40
2022-08-18T01:26:13.478Z,27.40
2022-08-18T01:29:11.899Z,27.40
2022-08-18T01:32:06.582Z,27.40
2022-08-18T01:34:54.674Z,27.40
2022-08-18T01:37:42.629Z,27.40
2022-08-18T01:41:25.813Z,27.40
2022-08-18T01:43:39.854Z,27.40
2022-08-18T01:46:29.025Z,27.40
2022-08-18T01:49:18.286Z,27.40
2022-08-18T01:52:08.177Z,27.40
2022-08-18T01:54:57.864Z,27.40
2022-08-18T01:57:46.670Z,27.40
2022-08-18T02:00:36.183Z,27.40
2022-08-18T02:03:27.313Z,27.40
2022-08-18T02:06:18.566Z,27.40
2022-08-18T02:09:23.718Z,27.40
2022-08-18T02:12:12.122Z,27.40
2022-08-18T02:15:00.696Z,27.40
2022-08-18T02:17:48.294Z,27.40
2022-08-18T02:20:35.700Z,27.40
2022-08-18T02:23:23.416Z,27.40
2022-08-18T02:26:13.951Z,27.30
2022-08-18T02:29:01.422Z,27.40
2022-08-18T02:31:49.897Z,27.40
2022-08-18T02:34:37.778Z,27.40
2022-08-18T02:37:25.341Z,27.40
2022-08-18T02:40:15.494Z,27.30
2022-08-18T02:43:09.329Z,27.30
2022-08-18T02:45:57.101Z,27.40
2022-08-18T02:48:45.941Z,27.40
2022-08-18T02:51:33.448Z,27.40
2022-08-18T02:54:23.210Z,27.30
2022-08-18T02:57:12.600Z,27.30
2022-08-18T03:00:01.434Z,27.30
2022-08-18T03:02:49.532Z,27.30
2022-08-18T03:05:38.068Z,27.30
2022-08-18T03:08:25.139Z,27.30
2022-08-18T03:11:12.695Z,27.30
2022-08-18T03:14:00.373Z,27.30
2022-08-18T03:16:54.707Z,27.30
2022-08-18T03:19:43.949Z,27.30
2022-08-18T03:22:35.756Z,27.30
2022-08-18T03:25:23.497Z,27.30
2022-08-18T03:28:10.929Z,27.30
2022-08-18T03:30:58.022Z,27.30
2022-08-18T03:33:46.515Z,27.30
2022-08-18T03:36:34.925Z,27.30
2022-08-18T03:39:25.065Z,27.30
2022-08-18T03:42:12.469Z,27.30
2022-08-18T03:44:59.998Z,27.30
2022-08-18T03:47:52.634Z,27.30
2022-08-18T03:50:39.845Z,27.30
2022-08-18T03:53:27.319Z,27.20
2022-08-18T03:56:19.197Z,27.30
2022-08-18T03:59:12.087Z,27.20
2022-08-18T04:01:59.404Z,27.30
2022-08-18T04:04:46.815Z,27.20
2022-08-18T04:07:38.384Z,27.20
2022-08-18T04:10:26.327Z,27.20
2022-08-18T04:13:15.190Z,27.20
2022-08-18T04:16:02.499Z,27.20
2022-08-18T04:18:49.757Z,27.20
2022-08-18T04:21:40.815Z,27.20
2022-08-18T04:24:31.854Z,27.20
2022-08-18T04:27:21.733Z,27.10
2022-08-18T04:30:12.520Z,27.20
2022-08-18T04:32:59.770Z,27.10
2022-08-18T04:35:47.339Z,27.10
2022-08-18T04:38:34.561Z,27.10
2022-08-18T04:41:23.389Z,27.10
2022-08-18T04:44:12.561Z,27.10
2022-08-18T04:47:02.596Z,27.10
2022-08-18T04:49:50.848Z,27.10
2022-08-18T04:53:00.783Z,27.10
2022-08-18T04:55:49.833Z,27.10
2022-08-18T04:58:37.958Z,27.10
2022-08-18T05:01:29.815Z,27.10
2022-08-18T05:04:19.401Z,27.10
2022-08-18T05:07:07.988Z,27.00
2022-08-18T05:09:55.195Z,27.00
2022-08-18T05:12:42.752Z,27.00
2022-08-18T05:15:42.176Z,27.00
2022-08-18T05:18:40.552Z,27.00
2022-08-18T05:21:33.215Z,27.00
2022-08-18T05:24:23.783Z,27.00
2022-08-18T05:27:12.754Z,27.00
2022-08-18T05:30:00.185Z,27.00
2022-08-18T05:32:49.996Z,26.90
2022-08-18T05:35:43.137Z,26.90
2022-08-18T05:38:48.248Z,26.90
2022-08-18T05:41:39.253Z,26.90
2022-08-18T05:44:34.254Z,26.90
2022-08-18T05:47:27.047Z,26.90
2022-08-18T05:50:18.788Z,26.90
2022-08-18T05:53:14.065Z,26.90
2022-08-18T05:56:23.658Z,26.90
2022-08-18T05:59:13.361Z,26.90
2022-08-18T06:02:09.157Z,26.90
2022-08-18T06:05:01.907Z,26.90
2022-08-18T06:07:56.329Z,26.90
2022-08-18T06:10:50.247Z,26.80
2022-08-18T06:13:42.351Z,26.80
2022-08-18T06:16:50.729Z,26.90
2022-08-18T06:19:50.614Z,26.90
2022-08-18T06:22:52.770Z,26.90
2022-08-18T06:26:01.590Z,26.90
2022-08-18T06:29:16.324Z,26.90
2022-08-18T06:32:24.643Z,26.90
2022-08-18T06:35:20.736Z,26.90
2022-08-18T06:38:45.813Z,26.90
2022-08-18T06:41:43.149Z,26.90
2022-08-18T06:44:41.888Z,26.90
2022-08-18T06:47:41.617Z,26.90
2022-08-18T06:50:36.070Z,26.90
2022-08-18T06:53:54.433Z,26.90
2022-08-18T06:56:51.447Z,26.90
2022-08-18T06:59:40.215Z,26.90
2022-08-18T07:02:43.646Z,26.90
2022-08-18T07:05:34.272Z,26.90
2022-08-18T07:08:35.364Z,26.90
2022-08-18T07:11:28.396Z,26.90
2022-08-18T07:14:22.144Z,26.90
2022-08-18T07:17:14.703Z,26.90
2022-08-18T07:20:09.677Z,26.90
2022-08-18T07:23:00.281Z,26.90
2022-08-18T07:25:50.191Z,26.90
2022-08-18T07:28:41.836Z,26.90
2022-08-18T07:31:43.450Z,26.90
2022-08-18T07:34:36.621Z,26.90
2022-08-18T07:37:29.550Z,27.00
2022-08-18T07:40:26.091Z,26.90
2022-08-18T07:43:21.697Z,27.00
2022-08-18T07:46:20.748Z,26.90
2022-08-18T07:49:08.078Z,26.90
2022-08-18T07:52:05.048Z,26.90
2022-08-18T07:55:10.039Z,26.90
2022-08-18T07:58:10.359Z,26.90
2022-08-18T08:01:02.729Z,26.90
2022-08-18T08:04:00.775Z,26.90
2022-08-18T08:07:22.975Z,26.90
2022-08-18T08:10:35.408Z,26.90
2022-08-18T08:13:54.108Z,26.90
2022-08-18T08:16:48.824Z,26.90
2022-08-18T08:20:10.553Z,26.90
2022-08-18T08:23:17.372Z,26.90
2022-08-18T08:26:25.179Z,26.90
2022-08-18T08:29:23.077Z,26.90
2022-08-18T08:32:17.435Z,26.90
2022-08-18T08:35:15.604Z,26.90
2022-08-18T08:38:42.772Z,26.90
2022-08-18T08:41:39.672Z,26.90
2022-08-18T08:44:44.984Z,26.90
2022-08-18T08:48:06.651Z,26.90
2022-08-18T08:51:02.907Z,26.90
2022-08-18T08:53:57.503Z,26.90
2022-08-18T08:56:48.609Z,26.90
2022-08-18T08:59:37.218Z,26.90
2022-08-18T09:02:48.935Z,27.00
2022-08-18T09:05:41.416Z,26.90
2022-08-18T09:09:18.636Z,26.90
2022-08-18T09:12:24.887Z,26.90
2022-08-18T09:15:52.233Z,26.90
2022-08-18T09:18:58.944Z,26.90
2022-08-18T09:21:54.762Z,26.90
2022-08-18T09:24:48.977Z,26.90
2022-08-18T09:28:09.352Z,26.80
2022-08-18T09:34:45.331Z,26.80
2022-08-18T09:38:08.511Z,26.80
2022-08-18T09:41:18.618Z,26.80
2022-08-18T09:44:12.072Z,26.80
2022-08-18T09:47:10.232Z,26.80
2022-08-18T09:49:58.487Z,26.80
2022-08-18T09:52:50.505Z,26.80
2022-08-18T09:56:04.792Z,26.80
2022-08-18T09:59:02.139Z,26.80
2022-08-18T10:01:52.545Z,26.80
2022-08-18T10:04:49.148Z,26.80
2022-08-18T10:07:43.997Z,26.80
2022-08-18T10:10:59.476Z,26.90
2022-08-18T10:14:04.332Z,26.80
2022-08-18T10:20:28.594Z,26.90
2022-08-18T10:24:03.127Z,26.90
2022-08-18T10:27:04.048Z,26.90
2022-08-18T10:29:58.493Z,27.00
2022-08-18T10:32:52.107Z,27.00
2022-08-18T10:36:03.215Z,26.90
2022-08-18T10:38:53.515Z,26.90
2022-08-18T10:41:58.069Z,27.00
2022-08-18T10:44:48.446Z,26.90
2022-08-18T10:47:37.513Z,26.90
2022-08-18T10:50:28.456Z,27.00
2022-08-18T10:53:44.390Z,27.00
2022-08-18T10:56:41.934Z,26.90
2022-08-18T10:59:48.968Z,26.90
2022-08-18T11:03:21.060Z,27.00
2022-08-18T11:06:21.231Z,27.00
2022-08-18T11:09:10.364Z,27.00
2022-08-18T11:12:02.275Z,27.00
2022-08-18T11:18:43.266Z,27.00
2022-08-18T11:21:42.601Z,27.10
2022-08-18T11:24:35.353Z,27.10
2022-08-18T11:27:28.953Z,27.10
2022-08-18T11:30:17.765Z,27.10
2022-08-18T11:33:05.943Z,27.10
2022-08-18T11:35:59.452Z,27.20
2022-08-18T11:38:56.627Z,27.20
2022-08-18T11:41:50.257Z,27.20
2022-08-18T11:44:41.009Z,27.30
2022-08-18T11:47:30.174Z,27.30
2022-08-18T11:50:29.700Z,27.40
2022-08-18T11:53:26.570Z,27.40
2022-08-18T11:56:30.940Z,27.50
2022-08-18T11:59:54.303Z,27.50
2022-08-18T12:02:43.375Z,27.50
2022-08-18T12:05:33.765Z,27.60
2022-08-18T12:08:57.011Z,27.60
2022-08-18T12:11:54.794Z,27.60
2022-08-18T12:15:03.601Z,27.60
2022-08-18T12:17:55.152Z,27.60
2022-08-18T12:20:42.257Z,27.70
2022-08-18T12:23:44.442Z,27.70
2022-08-18T12:26:38.523Z,27.70
2022-08-18T12:29:36.753Z,27.80
2022-08-18T12:35:42.241Z,27.80
2022-08-18T12:38:29.570Z,27.80
2022-08-18T12:41:22.887Z,27.80
2022-08-18T12:44:13.134Z,27.80
2022-08-18T12:47:03.405Z,27.80
2022-08-18T12:49:51.572Z,27.80
2022-08-18T12:52:39.677Z,27.80
2022-08-18T12:55:43.506Z,27.80
2022-08-18T12:58:32.842Z,27.80
2022-08-18T13:01:26.577Z,27.90
2022-08-18T13:04:15.618Z,27.90
2022-08-18T13:07:07.989Z,27.90
2022-08-18T13:09:56.228Z,27.90
2022-08-18T13:12:43.332Z,27.90
2022-08-18T13:15:30.838Z,28.00
2022-08-18T13:18:19.947Z,28.00
2022-08-18T13:21:16.724Z,28.00
2022-08-18T13:24:05.242Z,28.00
2022-08-18T13:26:56.961Z,28.00
2022-08-18T13:29:44.336Z,28.00
2022-08-18T13:32:38.351Z,28.00
2022-08-18T13:35:44.163Z,28.00
2022-08-18T13:38:31.998Z,28.10
2022-08-18T13:41:19.186Z,28.10
2022-08-18T13:44:11.601Z,28.10
2022-08-18T13:46:59.529Z,28.10
2022-08-18T13:49:58.206Z,28.10
2022-08-18T13:52:48.203Z,28.10
2022-08-18T13:55:36.953Z,28.10
2022-08-18T13:58:24.220Z,28.10
2022-08-18T14:04:22.531Z,28.10
2022-08-18T14:07:12.556Z,28.10
2022-08-18T14:10:10.683Z,28.20
2022-08-18T14:13:20.194Z,28.10
2022-08-18T14:16:10.408Z,28.20
2022-08-18T14:19:15.028Z,28.20
2022-08-18T14:22:23.271Z,28.20
2022-08-18T14:25:31.860Z,28.20
2022-08-18T14:28:24.776Z,28.20
2022-08-18T14:31:12.999Z,28.20
2022-08-18T14:34:04.089Z,28.30
2022-08-18T14:36:51.921Z,28.30
2022-08-18T14:39:40.353Z,28.20
2022-08-18T14:42:41.156Z,28.20
2022-08-18T14:45:35.316Z,28.30
2022-08-18T14:48:24.173Z,28.20
2022-08-18T14:51:11.968Z,28.20
2022-08-18T14:53:59.023Z,28.20
2022-08-18T14:56:46.892Z,28.20
2022-08-18T14:59:37.910Z,28.30
2022-08-18T15:02:25.640Z,28.30
2022-08-18T15:05:19.548Z,28.30
2022-08-18T15:08:11.860Z,28.30
2022-08-18T15:10:59.713Z,28.30
2022-08-18T15:13:47.267Z,28.30
2022-08-18T15:16:38.717Z,28.30
2022-08-18T15:19:58.513Z,28.30
2022-08-18T15:22:56.874Z,28.40
2022-08-18T15:25:50.930Z,28.40
2022-08-18T15:28:38.991Z,28.30
2022-08-18T15:34:46.909Z,28.40
2022-08-18T15:37:39.572Z,28.40
2022-08-18T15:40:41.437Z,28.40
2022-08-18T15:43:31.657Z,28.40
2022-08-18T15:46:19.148Z,28.40
2022-08-18T15:49:11.322Z,28.40
2022-08-18T15:52:03.862Z,28.40
2022-08-18T15:54:51.266Z,28.40
2022-08-18T15:57:40.000Z,28.40
2022-08-18T16:00:32.079Z,28.40
2022-08-18T16:03:21.313Z,28.40
2022-08-18T16:06:14.358Z,28.40
2022-08-18T16:09:08.868Z,28.40
2022-08-18T16:12:00.241Z,28.40
2022-08-18T16:14:48.124Z,28.40
2022-08-18T16:17:35.534Z,28.40
2022-08-18T16:20:25.407Z,28.40
2022-08-18T16:23:13.892Z,28.40
2022-08-18T16:26:04.409Z,28.30
2022-08-18T16:28:54.047Z,28.30
2022-08-18T16:31:41.577Z,28.30
2022-08-18T16:34:30.964Z,28.30
2022-08-18T16:37:18.121Z,28.30
2022-08-18T16:40:08.545Z,28.30
2022-08-18T16:42:59.401Z,28.30
2022-08-18T16:45:48.612Z,28.30
2022-08-18T16:48:38.118Z,28.30
2022-08-18T16:51:28.159Z,28.30
2022-08-18T16:54:16.449Z,28.30
2022-08-18T16:57:03.849Z,28.30
2022-08-18T17:00:09.894Z,28.20
2022-08-18T17:03:14.370Z,28.20
2022-08-18T17:06:03.357Z,28.20
2022-08-18T17:08:50.590Z,28.20
2022-08-18T17:11:48.066Z,28.20
2022-08-18T17:14:39.512Z,28.20
2022-08-18T17:17:28.284Z,28.20
2022-08-18T17:20:18.797Z,28.10
2022-08-18T17:23:07.747Z,28.20
2022-08-18T17:25:58.598Z,28.20
2022-08-18T17:28:53.879Z,28.20
2022-08-18T17:31:47.465Z,28.10
2022-08-18T17:34:41.934Z,28.10
2022-08-18T17:37:31.440Z,28.20
2022-08-18T17:40:24.437Z,28.10
2022-08-18T17:43:18.690Z,28.10
2022-08-18T17:46:14.050Z,28.10
2022-08-18T17:49:05.322Z,28.10
2022-08-18T17:51:56.600Z,28.10
2022-08-18T17:54:49.415Z,28.10
2022-08-18T17:57:43.567Z,28.10
2022-08-18T18:00:46.237Z,28.10
2022-08-18T18:03:34.225Z,28.10
2022-08-18T18:06:33.562Z,28.10
2022-08-18T18:09:32.709Z,28.10
2022-08-18T18:12:24.673Z,28.10
2022-08-18T18:15:15.459Z,28.10
2022-08-18T18:18:26.639Z,28.10
2022-08-18T18:21:22.929Z,28.10
2022-08-18T18:24:35.835Z,28.10
2022-08-18T18:27:35.610Z,28.00
2022-08-18T18:30:27.549Z,28.00
2022-08-18T18:33:18.420Z,28.00
2022-08-18T18:36:06.779Z,28.00
2022-08-18T18:39:11.140Z,28.00
2022-08-18T18:42:19.481Z,28.00
2022-08-18T18:45:09.703Z,28.00
2022-08-18T18:48:06.399Z,28.00
2022-08-18T18:51:10.807Z,28.00
2022-08-18T18:54:07.343Z,28.00
2022-08-18T18:56:57.439Z,28.00
2022-08-18T19:00:02.410Z,27.90
2022-08-18T19:03:03.844Z,27.90
2022-08-18T19:06:16.758Z,27.90
2022-08-18T19:09:14.061Z,27.90
2022-08-18T19:12:13.708Z,27.90
2022-08-18T19:15:14.753Z,27.90
2022-08-18T19:18:06.441Z,27.90
2022-08-18T19:22:01.948Z,27.90
2022-08-18T19:24:14.824Z,27.80
2022-08-18T19:27:06.039Z,27.80
2022-08-18T19:29:58.329Z,27.80
2022-08-18T19:32:52.003Z,27.80
2022-08-18T19:35:58.798Z,27.80
2022-08-18T19:38:55.561Z,27.80
2022-08-18T19:41:51.096Z,27.80
2022-08-18T19:44:51.073Z,27.70
2022-08-18T19:48:00.534Z,27.70
2022-08-18T19:50:54.302Z,27.70
2022-08-18T19:54:14.453Z,27.70
2022-08-18T19:57:18.164Z,27.60
2022-08-18T20:00:22.886Z,27.60
2022-08-18T20:04:03.802Z,27.60
2022-08-18T20:07:20.510Z,27.50
2022-08-18T20:10:36.304Z,27.50
2022-08-18T20:13:35.281Z,27.50
2022-08-18T20:16:43.956Z,27.50
2022-08-18T20:20:13.599Z,27.50
2022-08-18T20:23:02.000Z,27.40
2022-08-18T20:25:50.079Z,27.40
2022-08-18T20:28:41.745Z,27.40
2022-08-18T20:31:52.249Z,27.30
2022-08-18T20:34:39.898Z,27.30
2022-08-18T20:37:31.851Z,27.30
2022-08-18T20:40:42.901Z,27.30
2022-08-18T20:43:33.765Z,27.20
2022-08-18T20:46:37.549Z,27.20
2022-08-18T20:49:50.415Z,27.20
2022-08-18T20:52:48.945Z,27.20
2022-08-18T20:55:46.817Z,27.20
2022-08-18T20:58:38.586Z,27.20
2022-08-18T21:01:30.626Z,27.20
2022-08-18T21:04:17.739Z,27.10
2022-08-18T21:07:13.085Z,27.20
2022-08-18T21:10:12.802Z,27.10
2022-08-18T21:13:04.214Z,27.10
2022-08-18T21:15:51.507Z,27.10
2022-08-18T21:18:41.018Z,27.10
2022-08-18T21:21:32.775Z,27.10
2022-08-18T21:24:33.810Z,27.10
2022-08-18T21:27:28.106Z,27.10
2022-08-18T21:30:21.386Z,27.10
2022-08-18T21:33:21.200Z,27.10
2022-08-18T21:36:14.622Z,27.10
2022-08-18T21:39:09.363Z,27.10
2022-08-18T21:41:59.541Z,27.10
2022-08-18T21:44:49.974Z,27.10
2022-08-18T21:47:37.215Z,27.10
2022-08-18T21:50:27.154Z,27.10
2022-08-18T21:53:30.330Z,27.00
2022-08-18T21:56:24.257Z,27.10
2022-08-18T21:59:14.565Z,27.00
2022-08-18T22:02:03.930Z,27.00
2022-08-18T22:04:51.267Z,27.00
2022-08-18T22:07:47.287Z,27.00
2022-08-18T22:10:52.529Z,27.00
2022-08-18T22:13:59.728Z,27.00
2022-08-18T22:17:01.893Z,27.00
2022-08-18T22:19:50.631Z,27.00
2022-08-18T22:22:55.118Z,27.00
2022-08-18T22:25:43.385Z,26.90
2022-08-18T22:28:30.699Z,27.00
2022-08-18T22:31:21.299Z,26.90
2022-08-18T22:34:11.718Z,26.90
2022-08-18T22:37:04.259Z,26.90
2022-08-18T22:39:55.731Z,26.90
2022-08-18T22:42:43.328Z,26.90
2022-08-18T22:45:30.679Z,26.90
2022-08-18T22:48:18.099Z,26.90
2022-08-18T22:51:06.513Z,26.90
2022-08-18T22:53:56.815Z,26.90
2022-08-18T22:56:55.211Z,26.90
2022-08-18T22:59:46.790Z,26.90
2022-08-18T23:02:34.407Z,26.90
2022-08-18T23:05:21.786Z,26.90
2022-08-18T23:08:09.052Z,26.90
2022-08-18T23:10:57.744Z,26.90
2022-08-18T23:13:45.249Z,26.90
2022-08-18T23:16:32.606Z,26.90
2022-08-18T23:19:22.241Z,26.80
2022-08-18T23:22:11.073Z,26.80
2022-08-18T23:24:58.626Z,26.80
2022-08-18T23:27:47.361Z,26.80
2022-08-18T23:30:34.968Z,26.80
2022-08-18T23:33:22.065Z,26.80
2022-08-18T23:36:10.622Z,26.80
2022-08-18T23:38:58.730Z,26.70
2022-08-18T23:41:45.955Z,26.70
2022-08-18T23:44:35.455Z,26.70
2022-08-18T23:47:22.676Z,26.60
2022-08-18T23:50:11.893Z,26.70
2022-08-18T23:53:01.585Z,26.60
2022-08-18T23:55:48.709Z,26.60
2022-08-18T23:58:36.165Z,26.70
